createdAt,value
2024-04-24T00:00:39.430Z,54.00
2024-04-24T00:01:39.442Z,52.63
2024-04-24T00:02:39.463Z,49.13
2024-04-24T00:03:39.488Z,46.23
2024-04-24T00:04:39.386Z,49.20
2024-04-24T00:05:39.559Z,50.21
2024-04-24T00:06:39.375Z,47.76
2024-04-24T00:07:39.360Z,50.96
2024-04-24T00:08:39.352Z,49.85
2024-04-24T00:09:39.344Z,54.95
2024-04-24T00:10:39.543Z,54.88
2024-04-24T00:11:39.382Z,53.27
2024-04-24T00:12:39.323Z,50.06
2024-04-24T00:13:39.320Z,47.67
2024-04-24T00:14:39.335Z,47.79
2024-04-24T00:15:39.304Z,50.54
2024-04-24T00:16:39.310Z,51.23
2024-04-24T00:17:39.354Z,52.73
2024-04-24T00:18:39.377Z,49.66
2024-04-24T00:19:39.279Z,53.52
2024-04-24T00:20:39.295Z,51.04
2024-04-24T00:21:39.263Z,54.13
2024-04-24T00:22:39.254Z,48.60
2024-04-24T00:23:39.243Z,48.56
2024-04-24T00:24:39.248Z,49.32
2024-04-24T00:25:39.266Z,48.77
2024-04-24T00:26:39.235Z,50.42
2024-04-24T00:27:39.222Z,50.99
2024-04-24T00:28:39.245Z,49.92
2024-04-24T00:29:39.206Z,49.57
2024-04-24T00:30:39.209Z,53.30
2024-04-24T00:31:39.227Z,53.33
2024-04-24T00:32:39.294Z,54.44
2024-04-24T00:33:39.298Z,52.19
2024-04-24T00:34:39.170Z,49.37
2024-04-24T00:35:39.165Z,46.77
2024-04-24T00:36:39.177Z,52.76
2024-04-24T00:37:41.500Z,48.63
2024-04-24T00:38:39.150Z,54.53
2024-04-24T00:39:39.143Z,53.88
2024-04-24T00:40:39.134Z,52.33
2024-04-24T00:41:39.121Z,56.05
2024-04-24T00:42:39.133Z,53.52
2024-04-24T00:43:39.113Z,51.28
2024-04-24T00:44:39.130Z,53.69
2024-04-24T00:45:39.111Z,50.36
2024-04-24T00:46:39.091Z,54.08
2024-04-24T00:47:39.226Z,51.71
2024-04-24T00:48:39.150Z,53.85
2024-04-24T00:49:39.073Z,57.35
2024-04-24T00:50:39.077Z,49.23
2024-04-24T00:51:39.072Z,54.06
2024-04-24T00:52:39.051Z,54.00
2024-04-24T00:53:39.367Z,48.60
2024-04-24T00:54:39.080Z,53.60
2024-04-24T00:55:39.051Z,52.81
2024-04-24T00:56:39.032Z,49.36
2024-04-24T00:57:39.040Z,48.74
2024-04-24T00:58:39.037Z,54.97
2024-04-24T00:59:39.055Z,54.43
2024-04-24T01:00:41.310Z,56.07
2024-04-24T01:01:40.000Z,53.79
2024-04-24T01:02:39.016Z,54.89
2024-04-24T01:03:39.014Z,56.75
2024-04-24T01:04:38.982Z,49.14
2024-04-24T01:05:38.983Z,54.56
2024-04-24T01:06:38.967Z,47.47
2024-04-24T01:07:38.992Z,49.66
2024-04-24T01:08:38.980Z,52.86
2024-04-24T01:09:38.936Z,52.03
2024-04-24T01:10:38.959Z,52.35
2024-04-24T01:11:38.964Z,55.42
2024-04-24T01:12:38.924Z,52.14
2024-04-24T01:13:38.942Z,54.89
2024-04-24T01:14:38.917Z,54.84
2024-04-24T01:15:38.904Z,53.01
2024-04-24T01:16:38.912Z,51.78
2024-04-24T01:17:38.966Z,54.66
2024-04-24T01:18:38.956Z,54.12
2024-04-24T01:19:38.869Z,53.74
2024-04-24T01:20:38.865Z,51.38
2024-04-24T01:21:38.855Z,49.81
2024-04-24T01:22:38.854Z,46.90
2024-04-24T01:23:38.859Z,52.67
2024-04-24T01:24:38.857Z,52.45
2024-04-24T01:25:38.842Z,48.34
2024-04-24T01:26:38.845Z,53.86
2024-04-24T01:27:38.818Z,55.12
2024-04-24T01:28:38.808Z,52.46
2024-04-24T01:29:38.823Z,50.60
2024-04-24T01:30:38.790Z,52.16
2024-04-24T01:31:38.860Z,52.47
2024-04-24T01:32:38.905Z,55.10
2024-04-24T01:33:38.793Z,53.51
2024-04-24T01:34:38.766Z,54.15
2024-04-24T01:35:38.758Z,54.14
2024-04-24T01:36:38.766Z,53.16
2024-04-24T01:37:38.769Z,52.89
2024-04-24T01:38:38.752Z,50.40
2024-04-24T01:39:38.736Z,55.91
2024-04-24T01:40:39.750Z,51.41
2024-04-24T01:41:38.734Z,53.44
2024-04-24T01:42:38.730Z,55.64
2024-04-24T01:43:38.720Z,54.34
2024-04-24T01:44:38.694Z,52.95
2024-04-24T01:45:38.700Z,57.80
2024-04-24T01:46:38.692Z,59.05
2024-04-24T01:47:38.829Z,53.51
2024-04-24T01:48:38.808Z,52.23
2024-04-24T01:49:38.666Z,54.73
2024-04-24T01:50:38.676Z,57.03
2024-04-24T01:51:38.662Z,56.36
2024-04-24T01:52:38.650Z,52.99
2024-04-24T01:53:38.671Z,53.40
2024-04-24T01:54:38.623Z,54.24
2024-04-24T01:55:38.644Z,55.54
2024-04-24T01:56:38.619Z,53.68
2024-04-24T01:57:38.612Z,54.40
2024-04-24T01:58:38.598Z,54.67
2024-04-24T01:59:38.598Z,57.94
2024-04-24T02:00:38.606Z,54.14
2024-04-24T02:01:38.594Z,52.16
2024-04-24T02:02:38.581Z,56.05
2024-04-24T02:03:38.587Z,54.38
2024-04-24T02:04:38.570Z,56.59
2024-04-24T02:05:38.558Z,50.20
2024-04-24T02:06:38.551Z,58.75
2024-04-24T02:07:38.550Z,54.86
2024-04-24T02:08:38.555Z,52.51
2024-04-24T02:09:38.564Z,54.09
2024-04-24T02:10:38.520Z,52.02
2024-04-24T02:11:38.615Z,53.71
2024-04-24T02:12:38.528Z,53.02
2024-04-24T02:13:38.505Z,54.23
2024-04-24T02:14:38.528Z,53.82
2024-04-24T02:15:38.489Z,52.98
2024-04-24T02:16:38.479Z,55.04
2024-04-24T02:17:38.540Z,54.54
2024-04-24T02:18:38.598Z,54.26
2024-04-24T02:19:38.552Z,52.90
2024-04-24T02:20:38.496Z,53.66
2024-04-24T02:21:38.445Z,49.89
2024-04-24T02:22:38.449Z,51.08
2024-04-24T02:23:38.448Z,51.54
2024-04-24T02:24:38.578Z,50.48
2024-04-24T02:25:38.426Z,52.74
2024-04-24T02:26:38.428Z,52.37
2024-04-24T02:27:38.419Z,52.87
2024-04-24T02:28:38.422Z,55.16
2024-04-24T02:29:47.940Z,52.38
2024-04-24T02:30:40.391Z,53.12
2024-04-24T02:31:38.396Z,56.94
2024-04-24T02:32:38.724Z,53.10
2024-04-24T02:33:38.447Z,53.99
2024-04-24T02:34:38.371Z,53.57
2024-04-24T02:35:38.360Z,55.11
2024-04-24T02:36:38.388Z,55.57
2024-04-24T02:37:39.463Z,55.12
2024-04-24T02:38:38.332Z,52.78
2024-04-24T02:39:38.338Z,53.68
2024-04-24T02:40:38.316Z,55.91
2024-04-24T02:41:38.322Z,55.39
2024-04-24T02:42:38.321Z,55.18
2024-04-24T02:43:38.299Z,54.16
2024-04-24T02:44:38.305Z,53.29
2024-04-24T02:45:38.289Z,55.13
2024-04-24T02:46:38.277Z,54.39
2024-04-24T02:47:38.391Z,53.22
2024-04-24T02:48:38.325Z,53.04
2024-04-24T02:49:38.254Z,52.04
2024-04-24T02:50:38.240Z,56.76
2024-04-24T02:51:38.236Z,58.29
2024-04-24T02:52:38.237Z,55.61
2024-04-24T02:53:38.257Z,55.81
2024-04-24T02:54:38.233Z,54.59
2024-04-24T02:55:38.213Z,53.08
2024-04-24T02:56:38.213Z,51.53
2024-04-24T02:57:38.208Z,53.84
2024-04-24T02:58:38.220Z,53.17
2024-04-24T02:59:38.214Z,55.76
2024-04-24T03:00:38.226Z,55.16
2024-04-24T03:01:38.185Z,56.59
2024-04-24T03:02:38.307Z,56.57
2024-04-24T03:03:38.199Z,57.42
2024-04-24T03:04:38.172Z,55.89
2024-04-24T03:05:38.162Z,55.99
2024-04-24T03:06:38.148Z,54.59
2024-04-24T03:07:38.136Z,56.05
2024-04-24T03:08:38.127Z,56.41
2024-04-24T03:09:38.138Z,56.36
2024-04-24T03:10:38.129Z,57.24
2024-04-24T03:11:38.295Z,56.12
2024-04-24T03:12:38.093Z,57.74
2024-04-24T03:13:38.084Z,57.68
2024-04-24T03:14:38.092Z,57.45
2024-04-24T03:15:38.090Z,57.18
2024-04-24T03:16:38.080Z,59.62
2024-04-24T03:17:38.237Z,59.54
2024-04-24T03:18:38.060Z,59.37
2024-04-24T03:19:38.088Z,58.64
2024-04-24T03:20:38.079Z,58.91
2024-04-24T03:21:38.038Z,58.74
2024-04-24T03:22:38.022Z,58.39
2024-04-24T03:23:38.040Z,59.51
2024-04-24T03:24:38.028Z,60.66
2024-04-24T03:25:38.001Z,60.15
2024-04-24T03:26:38.003Z,59.57
2024-04-24T03:27:37.979Z,59.39
2024-04-24T03:28:37.975Z,57.75
2024-04-24T03:29:38.048Z,59.37
2024-04-24T03:30:37.985Z,59.14
2024-04-24T03:31:37.997Z,60.55
2024-04-24T03:32:38.011Z,60.39
2024-04-24T03:33:38.008Z,62.70
2024-04-24T03:34:38.010Z,60.53
2024-04-24T03:35:37.946Z,60.57
2024-04-24T03:36:37.949Z,60.84
2024-04-24T03:37:37.938Z,58.56
2024-04-24T03:38:37.922Z,58.23
2024-04-24T03:39:37.894Z,59.72
2024-04-24T03:40:37.906Z,59.69
2024-04-24T03:41:37.914Z,59.50
2024-04-24T03:42:38.176Z,60.12
2024-04-24T03:43:37.879Z,59.67
2024-04-24T03:44:37.885Z,58.61
2024-04-24T03:45:37.877Z,58.15
2024-04-24T03:46:37.911Z,58.52
2024-04-24T03:47:37.997Z,59.70
2024-04-24T03:48:40.193Z,59.52
2024-04-24T03:49:38.859Z,59.08
2024-04-24T03:50:37.855Z,59.14
2024-04-24T03:51:37.835Z,59.00
2024-04-24T03:52:39.069Z,59.21
2024-04-24T03:53:37.812Z,59.00
2024-04-24T03:54:37.826Z,58.44
2024-04-24T03:55:37.806Z,59.25
2024-04-24T03:56:37.803Z,58.20
2024-04-24T03:57:37.801Z,58.82
2024-04-24T03:58:37.807Z,59.18
2024-04-24T03:59:37.790Z,59.15
2024-04-24T04:00:37.774Z,59.97
2024-04-24T04:01:37.780Z,59.96
2024-04-24T04:02:37.852Z,59.83
2024-04-24T04:03:37.799Z,59.46
2024-04-24T04:04:37.764Z,59.52
2024-04-24T04:05:37.751Z,61.17
2024-04-24T04:06:37.747Z,61.16
2024-04-24T04:07:37.734Z,62.39
2024-04-24T04:08:37.743Z,60.26
2024-04-24T04:09:37.732Z,58.48
2024-04-24T04:10:37.708Z,58.22
2024-04-24T04:11:37.820Z,60.69
2024-04-24T04:12:37.696Z,60.42
2024-04-24T04:13:37.692Z,60.16
2024-04-24T04:14:37.698Z,60.63
2024-04-24T04:15:37.694Z,61.35
2024-04-24T04:16:37.678Z,60.83
2024-04-24T04:17:37.813Z,61.08
2024-04-24T04:18:37.746Z,61.13
2024-04-24T04:19:37.666Z,60.99
2024-04-24T04:20:37.630Z,62.07
2024-04-24T04:21:37.638Z,61.07
2024-04-24T04:22:41.090Z,61.39
2024-04-24T04:23:38.628Z,61.21
2024-04-24T04:24:37.622Z,60.81
2024-04-24T04:25:37.608Z,60.74
2024-04-24T04:26:37.584Z,62.76
2024-04-24T04:27:37.589Z,62.12
2024-04-24T04:28:37.585Z,62.39
2024-04-24T04:29:37.594Z,63.24
2024-04-24T04:30:37.581Z,61.59
2024-04-24T04:31:37.568Z,61.43
2024-04-24T04:32:37.676Z,59.98
2024-04-24T04:33:37.670Z,61.51
2024-04-24T04:34:37.547Z,62.21
2024-04-24T04:35:37.561Z,62.00
2024-04-24T04:36:37.540Z,62.19
2024-04-24T04:37:39.529Z,63.66
2024-04-24T04:38:38.530Z,62.78
2024-04-24T04:39:37.606Z,62.29
2024-04-24T04:40:37.516Z,61.61
2024-04-24T04:41:37.496Z,61.86
2024-04-24T04:42:37.492Z,63.03
2024-04-24T04:43:37.491Z,62.55
2024-04-24T04:44:37.484Z,62.50
2024-04-24T04:45:37.498Z,64.31
2024-04-24T04:46:37.467Z,64.16
2024-04-24T04:47:37.538Z,62.96
2024-04-24T04:48:37.483Z,61.88
2024-04-24T04:49:37.435Z,62.32
2024-04-24T04:50:37.462Z,60.73
2024-04-24T04:51:37.423Z,62.59
2024-04-24T04:52:37.500Z,61.86
2024-04-24T04:53:37.409Z,63.44
2024-04-24T04:54:37.413Z,63.14
2024-04-24T04:55:37.397Z,61.94
2024-04-24T04:56:37.736Z,63.03
2024-04-24T04:57:37.387Z,61.62
2024-04-24T04:58:37.385Z,60.38
2024-04-24T04:59:37.472Z,61.51
2024-04-24T05:00:37.445Z,60.58
2024-04-24T05:01:37.376Z,61.08
2024-04-24T05:02:37.431Z,61.57
2024-04-24T05:03:37.337Z,60.70
2024-04-24T05:04:37.344Z,60.11
2024-04-24T05:05:37.442Z,60.38
2024-04-24T05:06:37.329Z,61.85
2024-04-24T05:07:37.315Z,61.28
2024-04-24T05:08:37.315Z,61.92
2024-04-24T05:09:37.323Z,61.19
2024-04-24T05:10:37.290Z,64.34
2024-04-24T05:11:37.385Z,62.71
2024-04-24T05:12:37.288Z,61.36
2024-04-24T05:13:37.288Z,63.28
2024-04-24T05:14:37.313Z,63.79
2024-04-24T05:15:37.269Z,61.53
2024-04-24T05:16:37.897Z,62.18
2024-04-24T05:17:37.373Z,63.66
2024-04-24T05:18:37.381Z,61.80
2024-04-24T05:19:37.243Z,62.99
2024-04-24T05:20:37.279Z,62.45
2024-04-24T05:21:37.281Z,63.54
2024-04-24T05:22:37.236Z,62.21
2024-04-24T05:23:38.574Z,62.95
2024-04-24T05:24:38.195Z,62.24
2024-04-24T05:25:37.194Z,61.48
2024-04-24T05:26:37.188Z,60.61
2024-04-24T05:27:37.217Z,59.86
2024-04-24T05:28:37.199Z,58.95
2024-04-24T05:29:37.164Z,58.81
2024-04-24T05:30:37.363Z,59.05
2024-04-24T05:31:37.154Z,59.80
2024-04-24T05:32:37.262Z,59.77
2024-04-24T05:33:37.222Z,60.70
2024-04-24T05:34:37.125Z,60.65
2024-04-24T05:35:37.129Z,59.48
2024-04-24T05:36:37.191Z,59.15
2024-04-24T05:37:37.133Z,59.34
2024-04-24T05:38:37.134Z,58.07
2024-04-24T05:39:37.113Z,59.57
2024-04-24T05:40:37.105Z,60.55
2024-04-24T05:41:37.095Z,61.06
2024-04-24T05:42:37.082Z,59.25
2024-04-24T05:43:37.075Z,59.99
2024-04-24T05:44:37.078Z,60.24
2024-04-24T05:45:37.065Z,60.16
2024-04-24T05:46:37.050Z,59.11
2024-04-24T05:47:37.152Z,60.37
2024-04-24T05:48:37.094Z,59.34
2024-04-24T05:49:37.049Z,62.27
2024-04-24T05:50:37.028Z,60.65
2024-04-24T05:51:37.018Z,60.34
2024-04-24T05:52:37.071Z,61.01
2024-04-24T05:53:37.016Z,62.30
2024-04-24T05:54:36.998Z,61.95
2024-04-24T05:55:37.057Z,62.07
2024-04-24T05:56:36.998Z,62.26
2024-04-24T05:57:37.042Z,60.68
2024-04-24T05:58:37.048Z,62.99
2024-04-24T05:59:37.089Z,63.30
2024-04-24T06:00:37.261Z,62.63
2024-04-24T06:01:37.968Z,62.60
2024-04-24T06:02:37.049Z,62.67
2024-04-24T06:03:36.985Z,63.04
2024-04-24T06:04:37.901Z,62.15
2024-04-24T06:05:36.986Z,62.12
2024-04-24T06:06:36.931Z,63.29
2024-04-24T06:07:36.920Z,62.76
2024-04-24T06:08:36.923Z,63.42
2024-04-24T06:09:36.905Z,61.67
2024-04-24T06:10:36.919Z,62.31
2024-04-24T06:11:37.886Z,62.65
2024-04-24T06:12:37.023Z,61.23
2024-04-24T06:13:36.888Z,61.79
2024-04-24T06:14:36.871Z,61.71
2024-04-24T06:15:36.870Z,60.00
2024-04-24T06:16:36.873Z,62.07
2024-04-24T06:17:37.062Z,62.27
2024-04-24T06:18:37.011Z,63.37
2024-04-24T06:19:36.841Z,60.70
2024-04-24T06:20:36.829Z,60.79
2024-04-24T06:21:36.838Z,59.89
2024-04-24T06:22:36.853Z,60.64
2024-04-24T06:23:36.823Z,60.14
2024-04-24T06:24:36.811Z,61.24
2024-04-24T06:25:36.828Z,61.44
2024-04-24T06:26:36.806Z,61.63
2024-04-24T06:27:36.838Z,61.11
2024-04-24T06:28:36.796Z,61.24
2024-04-24T06:29:36.779Z,60.83
2024-04-24T06:30:36.772Z,61.41
2024-04-24T06:31:36.787Z,61.26
2024-04-24T06:32:36.933Z,60.20
2024-04-24T06:33:36.823Z,60.13
2024-04-24T06:34:36.795Z,62.02
2024-04-24T06:35:36.854Z,61.18
2024-04-24T06:36:36.748Z,58.80
2024-04-24T06:37:36.749Z,58.07
2024-04-24T06:38:36.735Z,60.07
2024-04-24T06:39:36.727Z,60.16
2024-04-24T06:40:37.799Z,62.70
2024-04-24T06:41:36.735Z,61.76
2024-04-24T06:42:36.995Z,59.72
2024-04-24T06:43:36.726Z,60.23
2024-04-24T06:44:36.668Z,59.31
2024-04-24T06:45:36.713Z,58.37
2024-04-24T06:46:36.663Z,57.58
2024-04-24T06:47:36.702Z,58.15
2024-04-24T06:48:36.758Z,58.59
2024-04-24T06:49:36.630Z,57.70
2024-04-24T06:50:36.753Z,58.99
2024-04-24T06:51:36.635Z,58.65
2024-04-24T06:52:36.623Z,60.73
2024-04-24T06:53:36.688Z,59.62
2024-04-24T06:54:36.603Z,58.94
2024-04-24T06:55:36.607Z,59.04
2024-04-24T06:56:36.609Z,60.76
2024-04-24T06:57:36.580Z,60.38
2024-04-24T06:58:36.608Z,59.60
2024-04-24T06:59:36.575Z,59.76
2024-04-24T07:00:36.653Z,61.45
2024-04-24T07:01:36.692Z,60.41
2024-04-24T07:02:36.556Z,60.54
2024-04-24T07:03:36.630Z,59.26
2024-04-24T07:04:36.543Z,60.38
2024-04-24T07:05:36.524Z,62.15
2024-04-24T07:06:36.529Z,58.55
2024-04-24T07:07:36.538Z,59.66
2024-04-24T07:08:36.549Z,58.89
2024-04-24T07:09:36.646Z,59.83
2024-04-24T07:10:36.509Z,61.04
2024-04-24T07:11:36.705Z,59.26
2024-04-24T07:12:36.481Z,57.91
2024-04-24T07:13:36.468Z,60.22
2024-04-24T07:14:36.476Z,57.31
2024-04-24T07:15:36.466Z,60.64
2024-04-24T07:16:36.453Z,61.65
2024-04-24T07:17:36.627Z,59.06
2024-04-24T07:18:36.496Z,59.36
2024-04-24T07:19:36.435Z,60.35
2024-04-24T07:20:36.465Z,59.79
2024-04-24T07:21:36.413Z,61.99
2024-04-24T07:22:36.409Z,60.11
2024-04-24T07:23:36.417Z,60.15
2024-04-24T07:24:36.394Z,59.88
2024-04-24T07:25:36.395Z,61.05
2024-04-24T07:26:36.382Z,59.51
2024-04-24T07:27:36.373Z,58.85
2024-04-24T07:28:36.377Z,58.64
2024-04-24T07:29:36.373Z,58.94
2024-04-24T07:30:37.329Z,59.01
2024-04-24T07:31:36.347Z,58.03
2024-04-24T07:32:36.421Z,60.84
2024-04-24T07:33:36.379Z,60.63
2024-04-24T07:34:36.331Z,58.62
2024-04-24T07:35:36.374Z,60.35
2024-04-24T07:36:36.493Z,60.42
2024-04-24T07:37:36.312Z,59.56
2024-04-24T07:38:36.362Z,57.59
2024-04-24T07:39:36.326Z,60.04
2024-04-24T07:40:36.285Z,60.13
2024-04-24T07:41:37.865Z,59.22
2024-04-24T07:42:36.288Z,59.42
2024-04-24T07:43:36.273Z,60.08
2024-04-24T07:44:36.241Z,59.47
2024-04-24T07:45:36.243Z,59.27
2024-04-24T07:46:36.234Z,58.45
2024-04-24T07:47:36.394Z,58.55
2024-04-24T07:48:36.383Z,59.04
2024-04-24T07:49:36.239Z,59.14
2024-04-24T07:50:36.236Z,57.18
2024-04-24T07:51:36.196Z,58.99
2024-04-24T07:52:36.230Z,57.58
2024-04-24T07:53:36.490Z,58.30
2024-04-24T07:54:37.178Z,56.82
2024-04-24T07:55:36.250Z,57.91
2024-04-24T07:56:36.193Z,58.47
2024-04-24T07:57:36.147Z,58.30
2024-04-24T07:58:36.254Z,57.82
2024-04-24T07:59:36.162Z,56.90
2024-04-24T08:00:36.221Z,58.10
2024-04-24T08:01:36.139Z,55.83
2024-04-24T08:02:36.328Z,59.81
2024-04-24T08:03:36.246Z,59.28
2024-04-24T08:04:36.166Z,58.56
2024-04-24T08:05:36.157Z,57.89
2024-04-24T08:06:36.086Z,56.71
2024-04-24T08:07:36.081Z,56.34
2024-04-24T08:08:36.111Z,58.69
2024-04-24T08:09:36.078Z,59.08
2024-04-24T08:10:36.084Z,60.44
2024-04-24T08:11:36.133Z,58.23
2024-04-24T08:12:36.047Z,58.49
2024-04-24T08:13:36.045Z,59.14
2024-04-24T08:14:36.047Z,58.91
2024-04-24T08:15:36.041Z,58.91
2024-04-24T08:16:36.036Z,58.65
2024-04-24T08:17:36.142Z,58.23
2024-04-24T08:18:36.000Z,61.05
2024-04-24T08:19:36.013Z,61.04
2024-04-24T08:20:36.067Z,60.08
2024-04-24T08:21:36.008Z,59.89
2024-04-24T08:22:36.014Z,60.06
2024-04-24T08:23:36.073Z,59.41
2024-04-24T08:24:35.975Z,58.91
2024-04-24T08:25:35.965Z,59.58
2024-04-24T08:26:35.982Z,59.18
2024-04-24T08:27:35.973Z,59.58
2024-04-24T08:28:40.975Z,59.34
2024-04-24T08:29:38.026Z,59.97
2024-04-24T08:30:35.943Z,59.24
2024-04-24T08:31:35.921Z,59.11
2024-04-24T08:32:36.037Z,57.46
2024-04-24T08:33:36.954Z,58.13
2024-04-24T08:34:35.918Z,58.37
2024-04-24T08:35:35.921Z,60.64
2024-04-24T08:36:35.907Z,59.92
2024-04-24T08:37:35.886Z,58.89
2024-04-24T08:38:35.890Z,58.63
2024-04-24T08:39:35.874Z,57.10
2024-04-24T08:40:35.876Z,59.32
2024-04-24T08:41:35.899Z,60.95
2024-04-24T08:42:35.852Z,59.37
2024-04-24T08:43:35.851Z,62.06
2024-04-24T08:44:35.972Z,60.52
2024-04-24T08:45:35.847Z,61.53
2024-04-24T08:46:35.832Z,62.01
2024-04-24T08:47:36.103Z,60.86
2024-04-24T08:48:35.843Z,59.17
2024-04-24T08:49:35.810Z,60.79
2024-04-24T08:50:35.825Z,61.34
2024-04-24T08:51:35.786Z,61.38
2024-04-24T08:52:35.783Z,61.72
2024-04-24T08:53:35.791Z,60.30
2024-04-24T08:54:35.758Z,60.93
2024-04-24T08:55:35.759Z,60.20
2024-04-24T08:56:35.806Z,62.53
2024-04-24T08:57:35.769Z,60.30
2024-04-24T08:58:35.751Z,60.04
2024-04-24T08:59:35.770Z,60.76
2024-04-24T09:00:35.739Z,62.43
2024-04-24T09:01:35.730Z,60.37
2024-04-24T09:02:35.916Z,60.12
2024-04-24T09:03:35.870Z,61.20
2024-04-24T09:04:35.728Z,60.61
2024-04-24T09:05:35.701Z,62.36
2024-04-24T09:06:35.690Z,61.90
2024-04-24T09:07:35.689Z,61.38
2024-04-24T09:08:35.718Z,60.93
2024-04-24T09:09:35.657Z,64.11
2024-04-24T09:10:35.664Z,60.66
2024-04-24T09:11:35.722Z,60.23
2024-04-24T09:12:35.654Z,60.19
2024-04-24T09:13:35.640Z,61.20
2024-04-24T09:14:35.743Z,60.16
2024-04-24T09:15:35.630Z,59.65
2024-04-24T09:16:35.598Z,60.93
2024-04-24T09:17:35.784Z,60.38
2024-04-24T09:18:35.653Z,61.60
2024-04-24T09:19:35.599Z,60.24
2024-04-24T09:20:35.632Z,59.59
2024-04-24T09:21:35.586Z,59.95
2024-04-24T09:22:35.630Z,59.38
2024-04-24T09:23:35.596Z,59.46
2024-04-24T09:24:35.554Z,60.76
2024-04-24T09:25:35.619Z,59.72
2024-04-24T09:26:35.611Z,60.11
2024-04-24T09:27:35.536Z,60.57
2024-04-24T09:28:35.552Z,59.59
2024-04-24T09:29:35.615Z,60.85
2024-04-24T09:30:35.553Z,60.25
2024-04-24T09:31:35.519Z,60.18
2024-04-24T09:32:35.618Z,60.83
2024-04-24T09:33:35.599Z,60.09
2024-04-24T09:34:35.512Z,60.66
2024-04-24T09:35:35.533Z,61.49
2024-04-24T09:36:35.483Z,61.06
2024-04-24T09:37:35.512Z,61.93
2024-04-24T09:38:35.488Z,60.75
2024-04-24T09:39:35.491Z,59.88
2024-04-24T09:40:35.451Z,61.91
2024-04-24T09:41:35.493Z,60.51
2024-04-24T09:42:35.437Z,62.20
2024-04-24T09:43:35.433Z,59.91
2024-04-24T09:44:35.633Z,59.28
2024-04-24T09:45:36.437Z,56.51
2024-04-24T09:46:35.439Z,55.56
2024-04-24T09:47:35.554Z,58.72
2024-04-24T09:48:35.553Z,58.49
2024-04-24T09:49:35.404Z,59.08
2024-04-24T09:50:35.460Z,59.70
2024-04-24T09:51:35.386Z,61.41
2024-04-24T09:52:35.374Z,59.16
2024-04-24T09:53:35.392Z,59.69
2024-04-24T09:54:35.390Z,57.92
2024-04-24T09:55:35.363Z,59.28
2024-04-24T09:56:35.389Z,59.91
2024-04-24T09:57:35.392Z,60.49
2024-04-24T09:58:35.342Z,59.39
2024-04-24T09:59:35.390Z,60.14
2024-04-24T10:00:35.330Z,61.09
2024-04-24T10:01:35.338Z,60.42
2024-04-24T10:02:35.447Z,62.15
2024-04-24T10:03:35.348Z,59.99
2024-04-24T10:04:35.316Z,60.04
2024-04-24T10:05:39.690Z,59.15
2024-04-24T10:06:37.286Z,61.03
2024-04-24T10:07:35.289Z,60.75
2024-04-24T10:08:35.325Z,59.98
2024-04-24T10:09:35.299Z,59.02
2024-04-24T10:10:35.262Z,59.51
2024-04-24T10:11:35.300Z,59.21
2024-04-24T10:12:35.242Z,57.82
2024-04-24T10:13:35.266Z,59.47
2024-04-24T10:14:35.293Z,57.48
2024-04-24T10:15:35.219Z,57.69
2024-04-24T10:16:35.253Z,58.00
2024-04-24T10:17:35.339Z,58.70
2024-04-24T10:18:35.313Z,62.07
2024-04-24T10:19:35.214Z,59.84
2024-04-24T10:20:35.311Z,60.80
2024-04-24T10:21:35.194Z,60.99
2024-04-24T10:22:35.178Z,59.91
2024-04-24T10:23:37.467Z,60.70
2024-04-24T10:24:35.196Z,60.92
2024-04-24T10:25:35.174Z,61.39
2024-04-24T10:26:35.172Z,59.63
2024-04-24T10:27:35.141Z,61.04
2024-04-24T10:28:35.147Z,60.24
2024-04-24T10:29:35.808Z,60.77
2024-04-24T10:30:35.131Z,61.25
2024-04-24T10:31:35.119Z,60.20
2024-04-24T10:32:35.223Z,60.84
2024-04-24T10:33:35.211Z,62.24
2024-04-24T10:34:35.108Z,61.17
2024-04-24T10:35:35.114Z,60.88
2024-04-24T10:36:35.104Z,61.30
2024-04-24T10:37:35.089Z,61.96
2024-04-24T10:38:35.130Z,61.00
2024-04-24T10:39:35.069Z,59.83
2024-04-24T10:40:35.067Z,60.99
2024-04-24T10:41:35.147Z,60.41
2024-04-24T10:42:35.049Z,62.07
2024-04-24T10:43:35.226Z,62.19
2024-04-24T10:44:35.108Z,60.42
2024-04-24T10:45:35.037Z,61.04
2024-04-24T10:46:35.035Z,62.02
2024-04-24T10:47:35.131Z,62.49
2024-04-24T10:48:35.048Z,60.14
2024-04-24T10:49:34.995Z,60.30
2024-04-24T10:50:35.155Z,59.85
2024-04-24T10:51:35.150Z,58.20
2024-04-24T10:52:34.991Z,59.88
2024-04-24T10:53:48.411Z,60.09
2024-04-24T10:54:36.979Z,61.45
2024-04-24T10:55:34.976Z,61.53
2024-04-24T10:56:39.110Z,60.78
2024-04-24T10:57:37.114Z,60.52
2024-04-24T10:58:34.948Z,59.98
2024-04-24T10:59:35.046Z,61.14
2024-04-24T11:00:34.953Z,61.29
2024-04-24T11:01:42.691Z,60.97
2024-04-24T11:02:37.002Z,61.49
2024-04-24T11:03:34.988Z,61.69
2024-04-24T11:04:34.905Z,61.17
2024-04-24T11:05:35.122Z,62.54
2024-04-24T11:06:34.924Z,61.70
2024-04-24T11:07:38.356Z,60.67
2024-04-24T11:08:35.953Z,61.16
2024-04-24T11:09:34.881Z,59.89
2024-04-24T11:10:34.868Z,62.36
2024-04-24T11:11:35.016Z,60.75
2024-04-24T11:12:34.885Z,62.04
2024-04-24T11:13:34.855Z,61.96
2024-04-24T11:14:34.839Z,60.96
2024-04-24T11:15:34.809Z,60.73
2024-04-24T11:16:34.814Z,60.27
2024-04-24T11:17:35.082Z,60.53
2024-04-24T11:18:34.867Z,61.50
2024-04-24T11:19:34.822Z,59.49
2024-04-24T11:20:34.850Z,61.31
2024-04-24T11:21:34.763Z,60.63
2024-04-24T11:22:34.777Z,60.20
2024-04-24T11:23:34.785Z,58.47
2024-04-24T11:24:34.752Z,59.55
2024-04-24T11:25:42.269Z,59.38
2024-04-24T11:26:36.910Z,60.41
2024-04-24T11:27:34.753Z,57.75
2024-04-24T11:28:34.732Z,57.82
2024-04-24T11:29:34.752Z,58.82
2024-04-24T11:30:34.710Z,59.87
2024-04-24T11:31:34.696Z,58.45
2024-04-24T11:32:34.809Z,58.64
2024-04-24T11:33:34.942Z,57.52
2024-04-24T11:34:34.703Z,60.41
2024-04-24T11:35:34.691Z,58.59
2024-04-24T11:36:34.685Z,58.12
2024-04-24T11:37:34.693Z,58.54
2024-04-24T11:38:35.679Z,58.41
2024-04-24T11:39:34.634Z,59.70
2024-04-24T11:40:34.623Z,58.78
2024-04-24T11:41:34.710Z,59.32
2024-04-24T11:42:34.647Z,58.25
2024-04-24T11:43:34.644Z,57.51
2024-04-24T11:44:34.697Z,58.65
2024-04-24T11:45:34.617Z,58.99
2024-04-24T11:46:34.614Z,60.78
2024-04-24T11:47:34.754Z,60.83
2024-04-24T11:48:43.579Z,59.63
2024-04-24T11:49:36.605Z,59.88
2024-04-24T11:50:34.653Z,59.79
2024-04-24T11:51:34.565Z,59.85
2024-04-24T11:52:34.559Z,59.71
2024-04-24T11:53:34.582Z,58.13
2024-04-24T11:54:34.547Z,58.40
2024-04-24T11:55:34.565Z,58.46
2024-04-24T11:56:34.548Z,59.87
2024-04-24T11:57:34.611Z,58.74
2024-04-24T11:58:34.525Z,57.22
2024-04-24T11:59:34.558Z,59.02
2024-04-24T12:00:34.624Z,58.53
2024-04-24T12:01:34.500Z,60.49
2024-04-24T12:02:34.708Z,59.62
2024-04-24T12:03:34.570Z,60.15
2024-04-24T12:04:34.524Z,59.54
2024-04-24T12:05:34.518Z,59.17
2024-04-24T12:06:34.448Z,56.30
2024-04-24T12:07:34.454Z,55.28
2024-04-24T12:08:34.479Z,57.10
2024-04-24T12:09:34.435Z,57.87
2024-04-24T12:10:34.436Z,58.19
2024-04-24T12:11:34.448Z,57.95
2024-04-24T12:12:34.418Z,58.28
2024-04-24T12:13:34.423Z,60.39
2024-04-24T12:14:34.418Z,58.37
2024-04-24T12:15:35.409Z,58.37
2024-04-24T12:16:34.407Z,59.47
2024-04-24T12:17:34.504Z,56.97
2024-04-24T12:18:34.429Z,56.82
2024-04-24T12:19:34.362Z,58.08
2024-04-24T12:20:34.396Z,58.33
2024-04-24T12:21:34.369Z,58.19
2024-04-24T12:22:34.467Z,58.48
2024-04-24T12:23:34.380Z,58.99
2024-04-24T12:24:34.346Z,58.87
2024-04-24T12:25:34.310Z,59.12
2024-04-24T12:26:34.337Z,59.94
2024-04-24T12:27:34.319Z,59.52
2024-04-24T12:28:34.301Z,58.35
2024-04-24T12:29:34.342Z,58.39
2024-04-24T12:30:34.291Z,59.08
2024-04-24T12:31:34.275Z,59.41
2024-04-24T12:32:34.501Z,59.25
2024-04-24T12:33:34.344Z,58.92
2024-04-24T12:34:34.279Z,60.12
2024-04-24T12:35:34.330Z,59.95
2024-04-24T12:36:35.750Z,59.77
2024-04-24T12:37:34.237Z,58.92
2024-04-24T12:38:34.219Z,59.44
2024-04-24T12:39:34.233Z,60.05
2024-04-24T12:40:34.213Z,60.76
2024-04-24T12:41:34.237Z,60.23
2024-04-24T12:42:35.215Z,61.51
2024-04-24T12:43:34.221Z,61.56
2024-04-24T12:44:34.229Z,60.62
2024-04-24T12:45:34.181Z,59.79
2024-04-24T12:46:34.173Z,60.32
2024-04-24T12:47:34.215Z,59.58
2024-04-24T12:48:35.127Z,62.46
2024-04-24T12:49:34.157Z,60.69
2024-04-24T12:50:34.234Z,62.39
2024-04-24T12:51:34.147Z,60.98
2024-04-24T12:52:34.151Z,61.13